Time;durP1;ratioP1;P1;durP2;ratioP2;P2;SDS_P1;SDS_P2;PMS_P1;PMS_P2;Temp;Humidity;BMP_temperature;BMP_pressure;BME280_temperature;BME280_humidity;BME280_pressure;Samples;Min_cycle;Max_cycle;Signal;HPM_P1;HPM_P2
2021/11/01 00:00:06;;;;;;;1.55;0.85;;;;;;;13.56;68.70;97529.13;2626014;47;20039;-72
2021/11/01 00:02:35;;;;;;;3.00;1.05;;;;;;;13.60;69.07;97535.53;2626006;54;20037;-72
2021/11/01 00:05:06;;;;;;;5.28;0.90;;;;;;;13.64;68.88;97530.56;2624890;54;20062;-71
2021/11/01 00:07:35;;;;;;;2.22;0.73;;;;;;;13.62;68.83;97548.56;2624594;47;20046;-70
2021/11/01 00:10:06;;;;;;;1.80;0.63;;;;;;;13.53;68.93;97573.94;2624403;54;20102;-72
2021/11/01 00:12:37;;;;;;;2.58;1.13;;;;;;;13.46;68.97;97560.78;2624937;54;20045;-71
2021/11/01 00:15:10;;;;;;;3.35;0.82;;;;;;;13.41;69.17;97562.56;2625394;54;20037;-71
2021/11/01 00:17:40;;;;;;;4.38;1.48;;;;;;;13.35;69.46;97557.19;2625621;54;20030;-72
2021/11/01 00:20:11;;;;;;;3.92;1.20;;;;;;;13.36;69.13;97558.78;2625231;54;20033;-71
2021/11/01 00:22:41;;;;;;;3.15;0.80;;;;;;;13.29;69.41;97560.00;2625997;39;20399;-71
2021/11/01 00:25:12;;;;;;;4.00;1.27;;;;;;;13.27;69.18;97565.56;2624332;46;20031;-71
2021/11/01 00:27:41;;;;;;;2.92;1.50;;;;;;;13.30;69.65;97551.78;2624639;47;20037;-72
2021/11/01 00:30:15;;;;;;;5.15;1.27;;;;;;;13.34;69.75;97554.75;2624569;47;20037;-71
2021/11/01 00:32:46;;;;;;;4.28;1.50;;;;;;;13.31;69.49;97547.31;2625100;54;20041;-72
2021/11/01 00:35:16;;;;;;;3.25;1.42;;;;;;;13.29;69.38;97536.91;2625911;46;20061;-72
2021/11/01 00:37:47;;;;;;;5.75;1.65;;;;;;;13.19;69.47;97539.38;2625368;54;20034;-72
2021/11/01 00:40:17;;;;;;;3.33;1.20;;;;;;;13.11;70.07;97537.91;2624238;46;20050;-73
2021/11/01 00:42:46;;;;;;;3.40;1.42;;;;;;;13.08;70.26;97543.69;2625253;54;20046;-73
2021/11/01 00:45:18;;;;;;;8.20;1.90;;;;;;;13.08;70.02;97546.34;2626086;47;20884;-73
2021/11/01 00:47:48;;;;;;;5.63;1.98;;;;;;;13.08;70.34;97561.47;2624491;54;20026;-72
2021/11/01 00:50:19;;;;;;;6.95;3.00;;;;;;;13.11;70.65;97561.00;2624281;54;20034;-72
2021/11/01 00:52:49;;;;;;;6.20;2.20;;;;;;;13.09;70.12;97565.72;2624606;47;20030;-72
2021/11/01 00:55:25;;;;;;;6.72;2.90;;;;;;;13.09;70.94;97563.88;2624292;54;20030;-72
2021/11/01 00:57:55;;;;;;;6.30;2.78;;;;;;;13.12;70.90;97562.59;2623961;54;20027;-72
2021/11/01 01:00:29;;;;;;;3.97;2.65;;;;;;;13.08;70.34;97558.81;2624182;47;20042;-72
2021/11/01 01:02:59;;;;;;;5.03;2.28;;;;;;;13.06;70.90;97560.88;2624218;47;20078;-71
2021/11/01 01:05:29;;;;;;;8.60;2.50;;;;;;;13.08;70.82;97577.38;2624124;54;20037;-71
2021/11/01 01:07:58;;;;;;;6.22;2.22;;;;;;;13.03;70.87;97585.25;2624715;54;20038;-71
2021/11/01 01:10:28;;;;;;;4.95;2.40;;;;;;;13.00;70.79;97577.75;2624846;47;20034;-72
2021/11/01 01:12:58;;;;;;;4.18;1.90;;;;;;;12.99;71.36;97586.78;2619734;54;20031;-72
2021/11/01 01:15:36;;;;;;;7.80;2.00;;;;;;;13.00;71.37;97588.38;2618286;46;20037;-72
2021/11/01 01:18:10;;;;;;;5.40;1.85;;;;;;;12.98;71.77;97593.94;2618067;54;20039;-73
2021/11/01 01:20:40;;;;;;;6.47;3.25;;;;;;;12.89;72.05;97592.69;2618125;54;20023;-71
2021/11/01 01:23:10;;;;;;;4.75;2.13;;;;;;;12.85;71.81;97580.94;2618623;54;20034;-71
2021/11/01 01:25:56;;;;;;;;;;;;;;;;;;;;;
2021/11/01 01:28:26;;;;;;;5.90;2.15;;;;;;;12.89;72.53;97574.91;2619486;54;20031;-72
2021/11/01 01:31:00;;;;;;;5.65;2.40;;;;;;;12.91;72.58;97569.38;2621045;54;20034;-72
2021/11/01 01:33:30;;;;;;;4.90;2.30;;;;;;;12.86;72.79;97564.00;2619157;47;20042;-72
2021/11/01 01:35:59;;;;;;;6.90;2.30;;;;;;;12.83;73.02;97559.16;2619423;54;20039;-72
2021/11/01 01:38:29;;;;;;;4.82;1.60;;;;;;;12.76;73.07;97564.59;2619830;47;20042;-72
2021/11/01 01:40:59;;;;;;;7.32;2.00;;;;;;;12.76;73.55;97566.44;2621771;54;20022;-72
2021/11/01 01:43:29;;;;;;;8.35;1.77;;;;;;;12.75;73.25;97567.50;2625179;54;20022;-71
2021/11/01 01:46:01;;;;;;;5.20;1.42;;;;;;;12.73;73.52;97565.06;2624809;47;20127;-72
2021/11/01 01:48:31;;;;;;;4.53;1.65;;;;;;;12.69;74.01;97563.13;2624713;47;20030;-72
2021/11/01 01:51:01;;;;;;;4.15;1.17;;;;;;;12.65;74.18;97562.78;2624317;54;20037;-71
2021/11/01 01:53:31;;;;;;;5.13;1.52;;;;;;;12.61;73.97;97554.53;2625804;39;20120;-71
2021/11/01 01:56:00;;;;;;;4.70;1.50;;;;;;;12.55;74.35;97542.19;2624651;39;20438;-71
2021/11/01 01:58:41;;;;;;;4.63;1.33;;;;;;;12.57;74.56;97532.19;2623412;46;20130;-70
2021/11/01 02:01:18;;;;;;;3.65;1.60;;;;;;;12.61;74.93;97511.28;2624218;47;20027;-71
2021/11/01 02:03:50;;;;;;;5.30;1.30;;;;;;;12.64;74.55;97506.31;2624406;54;20037;-71
2021/11/01 02:06:27;;;;;;;5.55;1.60;;;;;;;12.63;74.88;97493.31;2625853;54;20026;-70
2021/11/01 02:09:04;;;;;;;5.45;2.55;;;;;;;12.61;75.15;97482.94;2625433;54;20031;-71
2021/11/01 02:11:37;;;;;;;6.32;2.15;;;;;;;12.61;75.06;97469.69;2625672;54;20018;-71
2021/11/01 02:14:12;;;;;;;5.45;1.83;;;;;;;12.63;75.22;97464.13;2625090;54;20042;-71
2021/11/01 02:16:46;;;;;;;3.92;1.45;;;;;;;12.57;75.74;97455.31;2623155;54;20546;-70
2021/11/01 02:19:19;;;;;;;1.95;1.23;;;;;;;12.61;75.73;97463.56;2622822;54;20033;-70
2021/11/01 02:21:55;;;;;;;2.80;1.20;;;;;;;12.68;75.38;97468.72;2624163;54;20033;-71
2021/11/01 02:24:32;;;;;;;2.55;1.20;;;;;;;12.77;75.03;97476.03;2624382;54;20022;-71
2021/11/01 02:27:09;;;;;;;3.38;1.20;;;;;;;12.75;74.73;97504.66;2623979;54;20034;-70
2021/11/01 02:29:41;;;;;;;2.40;1.20;;;;;;;12.63;74.64;97507.34;2623565;54;20529;-71
2021/11/01 02:32:12;;;;;;;5.03;1.55;;;;;;;12.54;75.26;97515.94;2624632;39;20544;-70
2021/11/01 02:34:43;;;;;;;3.90;1.48;;;;;;;12.49;75.32;97527.25;2624259;54;20030;-70
2021/11/01 02:37:13;;;;;;;1.65;1.15;;;;;;;12.46;75.59;97534.88;2624514;54;20023;-70
2021/11/01 02:39:50;;;;;;;3.65;1.10;;;;;;;12.39;75.98;97537.63;2624739;54;20026;-71
2021/11/01 02:42:24;;;;;;;3.80;1.02;;;;;;;12.35;75.69;97542.59;2624573;54;20046;-71
2021/11/01 02:44:59;;;;;;;8.95;1.48;;;;;;;12.29;75.76;97542.75;2624538;47;20623;-71
2021/11/01 02:47:30;;;;;;;4.22;1.02;;;;;;;12.32;75.73;97547.56;2623943;54;20038;-71
2021/11/01 02:50:02;;;;;;;2.50;0.93;;;;;;;12.30;75.58;97553.09;2624461;54;20046;-72
2021/11/01 02:52:32;;;;;;;4.05;1.13;;;;;;;12.26;76.20;97559.09;2624850;54;20056;-72
2021/11/01 02:55:05;;;;;;;2.97;0.95;;;;;;;12.27;75.94;97566.00;2625371;54;20034;-71
2021/11/01 02:57:37;;;;;;;4.03;1.20;;;;;;;12.28;75.80;97570.25;2625763;39;20563;-72
2021/11/01 03:00:09;;;;;;;2.08;0.85;;;;;;;12.22;75.57;97569.34;2625787;54;20019;-72
2021/11/01 03:02:38;;;;;;;2.88;1.02;;;;;;;12.12;75.84;97575.25;2624615;47;20034;-72
2021/11/01 03:05:13;;;;;;;2.15;1.00;;;;;;;12.06;75.51;97578.00;2626804;39;20410;-72
2021/11/01 03:07:44;;;;;;;3.15;1.00;;;;;;;12.00;75.40;97578.94;2625803;54;20061;-71
2021/11/01 03:10:14;;;;;;;3.85;1.00;;;;;;;12.04;75.47;97577.44;2626193;54;20026;-72
2021/11/01 03:12:49;;;;;;;4.10;0.93;;;;;;;12.06;75.48;97564.78;2626264;39;20449;-72
2021/11/01 03:15:24;;;;;;;2.25;1.00;;;;;;;12.05;75.38;97565.81;2625798;54;20045;-72
2021/11/01 03:17:58;;;;;;;4.18;1.13;;;;;;;11.98;75.38;97568.56;2626301;54;20026;-70
2021/11/01 03:20:31;;;;;;;2.05;1.33;;;;;;;12.00;75.91;97561.22;2626425;54;20034;-73
2021/11/01 03:23:13;;;;;;;3.85;1.40;;;;;;;12.05;75.88;97561.31;2626210;54;20026;-72
2021/11/01 03:25:51;;;;;;;4.13;1.58;;;;;;;12.08;75.70;97563.50;2626187;54;20030;-72
2021/11/01 03:28:25;;;;;;;3.67;1.10;;;;;;;12.01;75.71;97554.88;2625904;54;20035;-72
2021/11/01 03:30:56;;;;;;;4.03;1.50;;;;;;;12.01;75.61;97554.06;2625818;54;20022;-71
2021/11/01 03:33:29;;;;;;;5.13;1.52;;;;;;;11.99;75.70;97542.88;2625948;54;20085;-72
2021/11/01 03:35:59;;;;;;;3.58;1.20;;;;;;;11.99;75.77;97521.69;2626161;54;20534;-72
2021/11/01 03:38:30;;;;;;;2.83;1.35;;;;;;;12.01;76.10;97527.59;2625158;54;20038;-73
2021/11/01 03:41:06;;;;;;;5.97;1.60;;;;;;;12.02;76.11;97522.03;2625682;54;20023;-73
2021/11/01 03:43:43;;;;;;;4.65;1.35;;;;;;;12.00;76.13;97515.34;2625707;54;20015;-73
2021/11/01 03:46:13;;;;;;;2.55;1.42;;;;;;;12.01;75.78;97523.09;2625428;54;20033;-71
2021/11/01 03:48:45;;;;;;;3.80;1.15;;;;;;;12.01;76.34;97535.53;2625501;54;20046;-72
2021/11/01 03:51:36;;;;;;;4.43;1.50;;;;;;;12.01;75.66;97541.63;2625454;54;20018;-72
2021/11/01 03:54:06;;;;;;;2.70;1.20;;;;;;;11.93;75.76;97554.44;2624266;47;20111;-72
2021/11/01 03:56:36;;;;;;;3.47;1.20;;;;;;;11.84;76.40;97557.41;2624095;54;20038;-73
2021/11/01 03:59:09;;;;;;;5.97;2.15;;;;;;;11.84;76.68;97568.00;2624543;54;20564;-73
2021/11/01 04:01:40;;;;;;;3.40;1.38;;;;;;;11.82;76.55;97570.03;2623894;54;20040;-73
2021/11/01 04:04:10;;;;;;;6.25;1.85;;;;;;;11.78;76.33;97578.69;2623284;54;20037;-72
2021/11/01 04:06:42;;;;;;;3.80;1.50;;;;;;;11.76;76.57;97576.28;2623026;54;20018;-73
2021/11/01 04:09:15;;;;;;;5.50;2.35;;;;;;;11.75;77.11;97579.94;2622875;54;20030;-72
2021/11/01 04:11:49;;;;;;;8.93;2.00;;;;;;;11.77;76.98;97583.16;2623357;54;20038;-73
2021/11/01 04:14:23;;;;;;;6.97;1.98;;;;;;;11.78;77.14;97579.47;2622980;54;20758;-73
2021/11/01 04:16:58;;;;;;;6.10;1.77;;;;;;;11.77;76.59;97593.75;2621698;54;20564;-73
2021/11/01 04:19:43;;;;;;;9.70;1.85;;;;;;;11.80;76.68;97588.00;2621099;54;20038;-73
2021/11/01 04:22:15;;;;;;;9.82;2.22;;;;;;;11.76;76.57;97596.66;2621869;54;20031;-72
2021/11/01 04:24:46;;;;;;;7.82;1.75;;;;;;;11.72;77.12;97606.09;2622218;54;20029;-72
2021/11/01 04:27:15;;;;;;;4.10;1.90;;;;;;;11.77;77.02;97608.84;2620594;54;20014;-71
2021/11/01 04:29:47;;;;;;;4.85;1.85;;;;;;;11.81;77.12;97596.75;2620355;54;20022;-71
2021/11/01 04:32:29;;;;;;;7.70;1.95;;;;;;;11.81;76.71;97596.75;2620637;54;20035;-71
2021/11/01 04:35:03;;;;;;;7.80;1.85;;;;;;;11.81;76.63;97597.56;2620351;54;20545;-71
2021/11/01 04:37:34;;;;;;;6.68;2.00;;;;;;;11.81;76.62;97580.88;2621391;39;20446;-71
2021/11/01 04:40:16;;;;;;;5.45;1.98;;;;;;;11.80;76.57;97588.00;2621055;54;20037;-72
2021/11/01 04:43:13;;;;;;;8.30;2.28;;;;;;;11.82;76.82;97601.00;2625275;54;20563;-72
2021/11/01 04:53:58;;;;;;;10.63;1.88;;;;;;;11.67;76.77;97604.09;2628250;54;20029;-73
2021/11/01 04:56:28;;;;;;;4.25;1.63;;;;;;;11.71;77.12;97599.16;2627361;51;20034;-73
2021/11/01 04:58:59;;;;;;;9.40;2.30;;;;;;;11.74;77.28;97606.66;2627197;47;20034;-72
2021/11/01 05:01:35;;;;;;;8.00;2.47;;;;;;;11.74;76.77;97588.91;2626964;39;20508;-72
2021/11/01 05:04:07;;;;;;;7.90;2.17;;;;;;;11.65;76.74;97598.25;2627827;54;20080;-72
2021/11/01 05:06:42;;;;;;;22.40;2.35;;;;;;;11.60;76.63;97590.19;2627476;54;20027;-73
2021/11/01 05:09:16;;;;;;;8.30;2.53;;;;;;;11.62;77.26;97596.03;2633133;39;20446;-73
2021/11/01 05:11:55;;;;;;;6.10;2.10;;;;;;;11.62;77.24;97590.75;2628098;54;20062;-73
2021/11/01 05:14:31;;;;;;;9.60;2.00;;;;;;;11.58;76.93;97619.50;2627351;54;20022;-72
2021/11/01 05:19:51;;;;;;;8.57;2.33;;;;;;;11.53;77.72;97626.53;2624003;54;20031;-72
2021/11/01 05:22:27;;;;;;;10.95;2.40;;;;;;;11.52;77.33;97628.38;2624058;54;20565;-72
2021/11/01 05:25:01;;;;;;;6.13;2.05;;;;;;;11.51;77.54;97620.63;2624265;54;20597;-72
2021/11/01 05:30:22;;;;;;;8.30;2.20;;;;;;;11.50;77.46;97598.66;2623636;54;20561;-72
2021/11/01 05:33:00;;;;;;;8.70;2.55;;;;;;;11.55;77.47;97584.75;2623868;54;20171;-72
2021/11/01 05:35:29;;;;;;;10.20;2.65;;;;;;;11.50;77.39;97593.38;2623639;54;20139;-71
2021/11/01 05:37:59;;;;;;;10.43;2.13;;;;;;;11.47;77.43;97600.97;2623657;47;20262;-73
2021/11/01 05:40:29;;;;;;;8.45;2.17;;;;;;;11.50;77.30;97606.59;2623364;54;20042;-73
2021/11/01 05:42:59;;;;;;;9.07;2.03;;;;;;;11.48;76.67;97623.75;2623137;54;20034;-73
2021/11/01 05:45:28;;;;;;;9.73;1.98;;;;;;;11.43;76.82;97613.88;2623265;47;20562;-73
2021/11/01 05:48:02;;;;;;;7.63;1.90;;;;;;;11.41;77.33;97610.63;2623070;54;20030;-73
2021/11/01 05:50:34;;;;;;;6.82;1.60;;;;;;;11.44;76.83;97612.81;2623948;54;20119;-71
2021/11/01 05:53:08;;;;;;;7.22;1.90;;;;;;;11.50;76.69;97616.38;2624437;54;20136;-72
2021/11/01 05:55:44;;;;;;;8.85;1.83;;;;;;;11.47;76.67;97640.66;2623602;54;20027;-73
2021/11/01 05:58:19;;;;;;;11.23;1.90;;;;;;;11.37;76.76;97634.06;2623854;46;20113;-71
2021/11/01 06:01:12;;;;;;;8.43;2.40;;;;;;;11.32;76.56;97626.00;2624106;54;20643;-72
2021/11/01 06:03:47;;;;;;;7.25;1.83;;;;;;;11.28;76.50;97626.69;2624950;54;20038;-72
2021/11/01 06:06:42;;;;;;;10.27;1.90;;;;;;;11.32;76.82;97631.31;2626324;54;20054;-72
2021/11/01 06:09:32;;;;;;;5.65;1.85;;;;;;;11.30;76.99;97625.41;2628135;54;20142;-73
2021/11/01 06:14:44;;;;;;;11.73;2.83;;;;;;;11.38;76.57;97611.88;2624445;54;20082;-71
2021/11/01 06:17:15;;;;;;;7.15;2.53;;;;;;;11.35;76.44;97624.78;2624673;54;20082;-73
2021/11/01 06:19:47;;;;;;;11.05;2.13;;;;;;;11.34;76.81;97636.38;2623293;54;20048;-72
2021/11/01 06:22:17;;;;;;;9.02;2.33;;;;;;;11.32;76.58;97627.84;2623813;54;20542;-72
2021/11/01 06:24:51;;;;;;;11.57;2.67;;;;;;;11.27;76.58;97615.31;2624482;54;20030;-73
2021/11/01 06:27:23;;;;;;;10.10;2.25;;;;;;;11.28;76.95;97622.22;2623507;54;20839;-72
2021/11/01 06:30:00;;;;;;;6.43;2.22;;;;;;;11.32;76.92;97628.66;2625336;47;20067;-73
2021/11/01 06:32:39;;;;;;;9.38;2.50;;;;;;;11.28;76.80;97632.78;2625561;54;20042;-72
2021/11/01 06:40:48;;;;;;;10.57;2.47;;;;;;;11.26;77.19;97634.84;2624807;54;20031;-72
2021/11/01 06:43:21;;;;;;;8.13;2.00;;;;;;;11.21;77.15;97640.00;2623515;54;20034;-72
2021/11/01 06:51:56;;;;;;;10.48;2.10;;;;;;;11.21;76.66;97663.00;2619624;54;20038;-70
2021/11/01 06:57:28;;;;;;;11.38;2.30;;;;;;;11.17;76.12;97667.94;2619315;54;20030;-70
2021/11/01 07:16:33;;;;;;;7.75;2.00;;;;;;;11.25;76.16;97706.50;2618949;47;20018;-69
2021/11/01 07:19:07;;;;;;;8.65;2.40;;;;;;;11.33;76.65;97714.13;2619799;54;20637;-70
2021/11/01 07:21:55;;;;;;;14.63;2.35;;;;;;;11.36;76.41;97721.63;2620260;54;20044;-71
2021/11/01 07:24:50;;;;;;;10.65;2.22;;;;;;;11.40;76.48;97710.38;2622047;39;20438;-70
2021/11/01 07:30:35;;;;;;;8.90;2.53;;;;;;;11.46;75.66;97705.22;2618829;54;20035;-70
2021/11/01 07:39:06;;;;;;;10.82;2.60;;;;;;;11.35;75.58;97718.19;2618626;54;20022;-69
2021/11/01 08:22:40;;;;;;;8.60;2.20;;;;;;;11.62;73.10;97683.38;2619278;54;20031;-70
2021/11/01 09:02:38;;;;;;;10.95;2.33;;;;;;;12.25;69.68;97697.94;2628506;54;20022;-72
2021/11/01 09:05:36;;;;;;;6.45;2.25;;;;;;;12.13;70.04;97708.50;2627549;51;20037;-73
2021/11/01 09:08:30;;;;;;;9.15;2.30;;;;;;;12.10;70.25;97701.03;2627612;54;20038;-72
2021/11/01 09:19:47;;;;;;;7.53;2.55;;;;;;;12.06;70.36;97683.97;2625088;46;20081;-73
2021/11/01 09:25:16;;;;;;;5.35;1.73;;;;;;;12.03;70.75;97676.47;2626782;54;20038;-73
2021/11/01 09:27:54;;;;;;;7.82;2.60;;;;;;;12.08;70.60;97687.19;2626506;54;20045;-72
2021/11/01 09:36:13;;;;;;;13.48;3.30;;;;;;;12.12;70.67;97678.56;2629133;46;20045;-73
2021/11/01 09:41:38;;;;;;;9.73;2.70;;;;;;;12.10;69.78;97679.81;2621811;39;20512;-72
2021/11/01 09:44:12;;;;;;;14.18;4.03;;;;;;;12.03;70.42;97665.88;2621578;54;20038;-73
2021/11/01 09:46:44;;;;;;;11.10;2.40;;;;;;;12.01;70.03;97670.59;2620403;54;20030;-72
2021/11/01 09:49:18;;;;;;;16.88;2.38;;;;;;;11.95;70.22;97664.38;2621347;54;20026;-73
2021/11/01 09:51:51;;;;;;;7.30;2.45;;;;;;;11.98;70.36;97665.75;2626951;54;20042;-73
2021/11/01 09:54:24;;;;;;;8.67;2.13;;;;;;;12.00;70.29;97669.81;2621368;54;20037;-72
2021/11/01 09:57:03;;;;;;;12.15;2.60;;;;;;;11.95;70.59;97666.22;2621244;54;20035;-73
2021/11/01 09:59:37;;;;;;;10.95;2.70;;;;;;;11.91;70.16;97663.22;2621166;54;20023;-72
2021/11/01 10:02:09;;;;;;;11.55;2.45;;;;;;;11.84;70.53;97662.53;2621527;54;20050;-71
2021/11/01 10:04:45;;;;;;;7.22;1.92;;;;;;;11.83;70.47;97674.13;2621866;54;20548;-73
2021/11/01 10:07:22;;;;;;;7.43;2.00;;;;;;;11.90;70.52;97677.50;2622782;54;20038;-72
2021/11/01 10:09:53;;;;;;;12.73;2.47;;;;;;;11.90;70.49;97680.16;2622579;47;20037;-71
2021/11/01 10:12:31;;;;;;;11.63;2.75;;;;;;;11.96;70.47;97684.53;2623698;54;20026;-73
2021/11/01 10:17:57;;;;;;;7.82;2.30;;;;;;;12.00;69.92;97676.91;2622892;46;20030;-72
2021/11/01 10:20:32;;;;;;;8.13;2.10;;;;;;;12.00;69.54;97677.75;2622625;47;20034;-72
2021/11/01 10:23:02;;;;;;;9.65;2.20;;;;;;;12.05;69.33;97675.22;2623561;47;20031;-72
2021/11/01 10:25:33;;;;;;;6.43;1.77;;;;;;;12.14;68.71;97675.69;2623447;54;20030;-72
2021/11/01 10:28:03;;;;;;;7.28;2.10;;;;;;;12.20;68.79;97676.59;2621982;47;20034;-72
2021/11/01 10:30:35;;;;;;;9.27;2.42;;;;;;;12.34;68.77;97673.50;2621867;54;20034;-72
2021/11/01 10:33:07;;;;;;;10.55;2.47;;;;;;;12.46;68.48;97670.84;2621484;54;20039;-73
2021/11/01 10:35:43;;;;;;;10.15;2.40;;;;;;;12.58;68.06;97674.28;2621207;54;20046;-74
2021/11/01 10:38:20;;;;;;;10.82;2.42;;;;;;;12.65;68.06;97676.78;2622292;54;20045;-73
2021/11/01 10:41:01;;;;;;;8.82;2.67;;;;;;;12.58;68.35;97662.88;2621786;54;20589;-73
2021/11/01 10:58:01;;;;;;;6.03;2.17;;;;;;;12.70;68.88;97636.34;2620795;54;20038;-73
2021/11/01 11:11:37;;;;;;;7.68;2.50;;;;;;;13.10;67.89;97629.19;2624135;39;20450;-72
2021/11/01 11:14:17;;;;;;;9.30;2.42;;;;;;;13.27;67.54;97618.63;2622910;54;20030;-73
2021/11/01 11:17:09;;;;;;;6.85;3.05;;;;;;;13.27;66.30;97613.31;2623767;54;20050;-73
2021/11/01 11:31:05;;;;;;;6.93;2.78;;;;;;;13.17;65.69;97607.78;2623064;54;20037;-72
2021/11/01 11:47:39;;;;;;;6.35;2.53;;;;;;;13.20;63.35;97591.41;2621338;54;20577;-75
2021/11/01 11:50:15;;;;;;;6.13;2.05;;;;;;;13.18;62.51;97590.81;2622612;54;20034;-74
2021/11/01 11:52:45;;;;;;;5.85;1.60;;;;;;;13.29;62.58;97589.19;2622411;54;20585;-74
2021/11/01 11:55:18;;;;;;;5.80;1.52;;;;;;;13.34;62.35;97584.75;2622334;54;20166;-74
2021/11/01 11:58:02;;;;;;;4.20;1.52;;;;;;;13.40;62.19;97576.91;2622334;54;20034;-75
2021/11/01 12:00:36;;;;;;;5.75;1.40;;;;;;;13.33;62.16;97583.16;2621586;47;20042;-73
2021/11/01 12:03:17;;;;;;;7.47;2.25;;;;;;;13.28;61.92;97566.34;2622808;54;20039;-73
2021/11/01 12:05:52;;;;;;;9.57;2.33;;;;;;;13.32;61.45;97567.47;2623111;47;20037;-72
2021/11/01 12:08:28;;;;;;;9.85;3.17;;;;;;;13.46;61.80;97560.78;2622151;54;20034;-74
2021/11/01 12:19:08;;;;;;;4.20;1.77;;;;;;;14.04;60.16;97561.38;2622433;47;20030;-72
2021/11/01 12:21:41;;;;;;;8.88;1.92;;;;;;;14.14;59.91;97566.84;2622094;47;20042;-73
2021/11/01 12:24:12;;;;;;;6.22;1.85;;;;;;;14.22;59.80;97565.63;2622537;39;20426;-73
2021/11/01 12:26:44;;;;;;;4.60;1.70;;;;;;;14.28;59.23;97557.47;2622305;54;20035;-73
2021/11/01 12:29:17;;;;;;;7.13;1.52;;;;;;;14.19;58.91;97558.94;2621229;54;20077;-73
2021/11/01 12:32:01;;;;;;;10.60;1.80;;;;;;;14.10;59.52;97557.75;2622047;54;20026;-73
2021/11/01 12:34:41;;;;;;;5.20;1.58;;;;;;;14.06;59.83;97560.09;2622508;54;20554;-72
2021/11/01 12:37:18;;;;;;;3.33;1.25;;;;;;;14.12;59.98;97556.47;2623006;51;20022;-73
2021/11/01 12:39:50;;;;;;;7.05;2.03;;;;;;;14.06;59.04;97567.28;2622199;54;20030;-73
2021/11/01 12:42:37;;;;;;;5.73;1.93;;;;;;;13.97;58.53;97574.88;2621871;54;20034;-73
2021/11/01 12:58:55;;;;;;;4.93;1.50;;;;;;;13.84;58.04;97557.41;2621987;39;20422;-72
2021/11/01 13:01:30;;;;;;;5.57;1.67;;;;;;;14.00;57.79;97547.81;2621362;54;20029;-71
2021/11/01 13:04:13;;;;;;;7.90;1.58;;;;;;;14.12;57.36;97548.50;2620639;47;20557;-71
2021/11/01 13:06:54;;;;;;;5.28;1.83;;;;;;;14.07;56.88;97551.06;2620612;47;20548;-70
2021/11/01 13:09:26;;;;;;;11.95;7.70;;;;;;;13.97;57.07;97547.50;2621653;54;20033;-71
2021/11/01 13:12:09;;;;;;;4.95;1.92;;;;;;;13.92;57.45;97539.44;2621686;54;20030;-72
2021/11/01 13:14:56;;;;;;;8.05;3.92;;;;;;;13.91;57.74;97548.47;2622048;54;20066;-71
2021/11/01 13:20:19;;;;;;;1.58;0.98;;;;;;;13.50;55.76;97561.94;2621806;47;20554;-72
2021/11/01 13:22:56;;;;;;;1.10;0.60;;;;;;;13.10;56.23;97564.66;2622612;46;20053;-73
2021/11/01 13:25:29;;;;;;;1.10;0.77;;;;;;;12.87;56.87;97562.94;2621297;54;20045;-73
2021/11/01 13:28:25;;;;;;;2.28;1.05;;;;;;;12.66;59.15;97564.41;2621227;54;20039;-72
2021/11/01 13:36:30;;;;;;;2.47;1.02;;;;;;;12.25;61.98;97562.78;2620841;39;20395;-72
2021/11/01 13:39:05;;;;;;;3.80;2.30;;;;;;;12.25;61.82;97563.59;2620997;54;20037;-71
2021/11/01 13:41:35;;;;;;;2.75;1.17;;;;;;;12.26;62.23;97565.19;2620938;54;20034;-72
2021/11/01 13:44:09;;;;;;;4.47;1.35;;;;;;;12.22;62.60;97558.75;2622260;47;20022;-72
2021/11/01 13:46:46;;;;;;;2.67;1.20;;;;;;;12.12;63.38;97564.66;2624022;54;20037;-70
2021/11/01 13:49:20;;;;;;;2.75;1.58;;;;;;;12.02;63.90;97567.06;2623411;54;20041;-71
2021/11/01 13:51:52;;;;;;;1.95;0.82;;;;;;;11.91;64.05;97570.53;2623003;54;20050;-71
2021/11/01 13:54:34;;;;;;;1.48;0.70;;;;;;;11.83;64.88;97569.03;2623027;54;20065;-71
2021/11/01 13:57:06;;;;;;;1.13;0.88;;;;;;;11.78;65.90;97571.53;2624206;39;20426;-71
2021/11/01 13:59:46;;;;;;;1.35;1.00;;;;;;;11.78;66.71;97573.38;2622740;47;20038;-72
2021/11/01 14:13:34;;;;;;;5.93;1.73;;;;;;;12.29;66.89;97542.75;2624169;54;20037;-71
2021/11/01 14:16:27;;;;;;;2.47;1.42;;;;;;;12.33;66.96;97547.34;2622419;47;20039;-71
2021/11/01 15:00:55;;;;;;;4.65;3.15;;;;;;;12.45;66.14;97538.53;2623284;54;20066;-71
2021/11/01 15:17:27;;;;;;;3.63;1.85;;;;;;;12.30;66.87;97531.09;2622622;54;20179;-71
2021/11/01 15:20:19;;;;;;;7.65;3.15;;;;;;;12.29;67.26;97527.66;2624738;39;20442;-71
2021/11/01 15:23:04;;;;;;;2.38;2.05;;;;;;;12.23;67.71;97533.88;2623871;54;20027;-71
2021/11/01 15:28:31;;;;;;;4.05;1.92;;;;;;;12.20;67.91;97546.78;2623740;54;20134;-71
2021/11/01 16:18:00;;;;;;;10.00;4.90;;;;;;;11.77;71.19;97555.88;2622864;54;20046;-73
2021/11/01 16:20:30;;;;;;;8.35;3.40;;;;;;;11.76;71.25;97554.28;2622220;47;20030;-70
2021/11/01 16:25:59;;;;;;;5.22;4.00;;;;;;;11.72;71.71;97555.78;2622154;54;20122;-71
2021/11/01 16:28:32;;;;;;;7.32;3.90;;;;;;;11.67;71.85;97559.09;2623627;54;20026;-70
2021/11/01 16:31:23;;;;;;;8.97;5.20;;;;;;;11.67;71.75;97567.03;2623344;54;20538;-71
2021/11/01 16:34:00;;;;;;;10.18;7.03;;;;;;;11.63;71.79;97561.41;2624064;54;20042;-71
2021/11/01 16:39:43;;;;;;;9.80;3.75;;;;;;;11.52;71.80;97559.56;2620784;54;20041;-71
2021/11/01 16:42:12;;;;;;;3.58;2.30;;;;;;;11.43;71.53;97558.28;2622133;39;20434;-70
2021/11/01 16:44:44;;;;;;;6.43;3.05;;;;;;;11.31;70.98;97557.47;2621891;54;20038;-71
2021/11/01 16:47:14;;;;;;;5.50;2.97;;;;;;;11.21;70.79;97559.84;2622082;54;20030;-70
2021/11/01 16:49:47;;;;;;;4.82;2.40;;;;;;;11.16;70.88;97561.34;2622385;54;20038;-71
2021/11/01 16:52:20;;;;;;;5.75;2.53;;;;;;;11.13;71.29;97566.25;2623482;54;20039;-71
2021/11/01 16:54:53;;;;;;;4.22;2.25;;;;;;;11.11;70.89;97565.69;2621944;54;20031;-70
2021/11/01 16:57:35;;;;;;;5.10;2.47;;;;;;;11.04;71.21;97563.13;2619252;54;20043;-70
2021/11/01 17:00:20;;;;;;;7.95;4.57;;;;;;;11.02;71.23;97565.22;2619463;54;20038;-71
2021/11/01 17:05:56;;;;;;;6.50;4.82;;;;;;;11.03;71.32;97571.31;2619625;54;20022;-72
2021/11/01 17:22:19;;;;;;;8.60;5.28;;;;;;;10.99;71.27;97575.44;2623108;54;20031;-72
2021/11/01 17:24:52;;;;;;;6.05;4.18;;;;;;;10.95;71.58;97575.06;2623661;54;20058;-72
2021/11/01 17:36:01;;;;;;;4.15;2.70;;;;;;;10.44;73.03;97570.22;2623735;54;20042;-71
2021/11/01 17:38:58;;;;;;;9.15;3.65;;;;;;;10.47;72.86;97575.88;2623623;54;20043;-71
2021/11/01 18:39:49;;;;;;;11.70;7.50;;;;;;;10.03;74.05;97582.22;2624427;54;20546;-71
2021/11/01 18:45:13;;;;;;;9.95;6.68;;;;;;;9.74;74.02;97581.09;2622978;54;20042;-71
2021/11/01 18:50:56;;;;;;;9.85;5.20;;;;;;;9.61;74.79;97580.19;2623003;54;20027;-72
2021/11/01 18:53:31;;;;;;;;;;;;;;;9.56;74.83;97571.31;2623350;54;20042;-73
2021/11/01 18:56:02;;;;;;;11.85;6.07;;;;;;;9.51;75.09;97571.97;2622643;54;19946;-73
2021/11/01 18:58:34;;;;;;;7.97;5.60;;;;;;;9.50;75.46;97574.78;2622587;47;20022;-72
2021/11/01 19:01:12;;;;;;;9.45;5.55;;;;;;;9.50;75.26;97580.06;2623066;54;20034;-70
2021/11/01 19:03:46;;;;;;;7.53;5.63;;;;;;;9.52;75.23;97576.19;2624389;39;20490;-72
2021/11/01 19:06:33;;;;;;;8.07;5.13;;;;;;;9.45;75.22;97564.88;2624671;39;20474;-72
2021/11/01 19:09:28;;;;;;;8.57;5.43;;;;;;;9.33;75.75;97580.59;2623211;54;20038;-72
2021/11/01 20:04:16;;;;;;;7.15;6.00;;;;;;;8.68;76.91;97593.94;2622360;47;19950;-73
2021/11/01 20:06:59;;;;;;;11.77;8.10;;;;;;;8.71;77.26;97587.47;2622700;54;20047;-73
2021/11/01 20:12:37;;;;;;;9.10;4.18;;;;;;;8.86;77.18;97581.94;2622232;47;20082;-73
2021/11/01 21:26:36;;;;;;;6.43;3.63;;;;;;;8.79;76.08;97545.06;2622698;54;20045;-72
2021/11/01 21:29:08;;;;;;;8.15;3.83;;;;;;;8.74;76.34;97552.00;2622391;54;20030;-73
2021/11/01 21:31:38;;;;;;;5.70;3.55;;;;;;;8.62;76.32;97547.38;2621717;39;20641;-73
2021/11/01 21:34:13;;;;;;;9.45;3.00;;;;;;;8.52;76.76;97543.59;2621750;54;20582;-71
2021/11/01 21:36:43;;;;;;;5.43;2.20;;;;;;;8.42;76.77;97544.03;2622388;47;20580;-72
2021/11/01 21:39:12;;;;;;;6.63;2.13;;;;;;;8.36;77.20;97543.00;2622253;54;20038;-71
2021/11/01 21:41:42;;;;;;;3.97;2.40;;;;;;;8.23;77.35;97537.00;2620979;54;20043;-72
2021/11/01 21:44:14;;;;;;;6.95;2.75;;;;;;;8.13;78.00;97543.50;2620456;51;20027;-71
2021/11/01 21:46:44;;;;;;;5.47;2.60;;;;;;;8.19;78.00;97540.03;2619453;54;20057;-71